Aérodrome :
LOGIN :

S'inscrire | Disclaimer

   EN    FR    IT 

 










Légende :    VFR   VFR Marginal   IFR   IFR Intensif   IFR Très Intensif
Visi : 
Plafond : 
>= 8 km
>= 3000ft
5 à 8 km
1000 à 3000 ft
1500m à 5 km
500 à 1000 ft
800 à 1500m
200 à 500 ft
< 800m
< 200 ft
Symboles :   Orages  Brouillard  Fortes neiges  Fortes précipitations  Vent > 20 kt
SIGMETs :   Divers  Orages  Givrage  Turbulence  Onde Orograph.  Cendres Volcan.






- Altitude de l'aérodrome : 36 ft
- Code IATA : LTQ


LFAT - Le Touquet

DERNIER METAR :
  • 051900Z AUTO 21009KT 190V270 8000 BKN012 OVC240 08/06 Q1019

METARs EXPIRÉS :
  • 051830Z AUTO 19007KT 130V240 9000 SCT024 SCT029 OVC230 07/06 Q1019 TEMPO OVC007
  • 051800Z AUTO 20006KT 170V240 9000 FEW013 SCT023 BKN030 08/06 Q1019 TEMPO OVC007
  • 051730Z AUTO 20010KT 180V240 8000 BKN013 OVC019 08/06 Q1019 TEMPO OVC007
  • 051700Z AUTO 21008KT 170V230 7000 OVC010 08/06 Q1019 NOSIG
  • 051630Z AUTO 21008KT 180V250 6000 OVC009 07/06 Q1020 NOSIG

TAF AMD TAF LFAT
Valide du 05 à 15h jusqu'au 06 à 00h UTC


051546Z 0515/0524 26005KT 7000 SCT007 BKN020
TEMPO 0515/0524 OVC007
ATIS : +33 3 21 06 62 84



MET'MAP, la Météo Aéronautique d'un coup d'oeil ! - Copyright ORBIFLY Décembre 2007 - Disclaimer

ORBIFLY MET'MAP TEAM :

Programmation & Développement : Alexandra Zaïnal
Sur une idée originale de : Baudouin d'Aumeries
Assistance à la programmation : Marc-Olivier Méhu
Soutien technique & logistique : Manuel Goepfert

Contact : metmap@orbifly.com




SOURCES & CREDITS :

   NOAA